To NAV CANADA Home Page Login to a new session Search on AWWS site Disclaimer Vers la page française équivalente Tips FAQ What's new on the site To the Forecasts and Observations / NOTAM section To "File a Flight Plan" website Publications and other links Update of the User's profile FIC Telephone Numbers My Weather Data Folder Route Weather Data Regional Weather Data Local Weather Data To the Forecasts and Observations / NOTAM section
Request Generated 09/19/2020 at 02:55:52 UTC . Weather information available at that time is displayed.

METAR/TAF

TORONTO/OSHAWA EXECUTIVE AIRPORT/ON    (show WxCam)

METAR CYOO 190200Z AUTO 34006KT 9SM CLR 06/00 A3032 RMK SLP271=
METAR CYOO 190100Z AUTO 34006KT 9SM CLR 08/00 A3030 RMK SLP266=
METAR CYOO 190000Z AUTO 33005KT 9SM CLR 09/M00 A3029 RMK SLP261=

TAF CYOO 190142Z 1902/1914 34006KT P6SM SKC
BECMG 1904/1906 03008KT
BECMG 1911/1913 07010KT
RMK FCST BASED ON AUTO OBS. NXT FCST BY 190800Z=
Your time UTC time
Weather data provided by Environment Canada and NAV CANADA